createdAt,value
2023-07-21T00:01:05.209Z,9.35
2023-07-21T00:03:43.029Z,11.50
2023-07-21T00:06:11.247Z,10.70
2023-07-21T00:08:39.846Z,10.45
2023-07-21T00:11:07.135Z,10.23
2023-07-21T00:13:36.506Z,9.88
2023-07-21T00:16:07.849Z,9.90
2023-07-21T00:18:36.378Z,15.13
2023-07-21T00:21:06.977Z,16.00
2023-07-21T00:23:35.112Z,10.30
2023-07-21T00:26:02.548Z,11.27
2023-07-21T00:28:30.597Z,10.77
2023-07-21T00:30:57.978Z,12.02
2023-07-21T00:33:29.487Z,10.80
2023-07-21T00:35:58.369Z,9.68
2023-07-21T00:38:26.614Z,9.40
2023-07-21T00:40:54.039Z,9.45
2023-07-21T00:43:21.813Z,9.68
2023-07-21T00:45:50.198Z,10.10
2023-07-21T00:48:19.395Z,9.75
2023-07-21T00:50:51.975Z,9.25
2023-07-21T00:53:21.305Z,8.23
2023-07-21T00:55:51.494Z,9.63
2023-07-21T00:58:21.121Z,9.25
2023-07-21T01:00:49.040Z,9.02
2023-07-21T01:03:18.995Z,8.60
2023-07-21T01:05:53.908Z,7.65
2023-07-21T01:08:22.512Z,7.75
2023-07-21T01:10:51.396Z,7.65
2023-07-21T01:13:22.216Z,7.57
2023-07-21T01:15:52.319Z,6.85
2023-07-21T01:18:21.817Z,7.00
2023-07-21T01:20:50.610Z,7.32
2023-07-21T01:23:21.294Z,6.72
2023-07-21T01:25:52.104Z,6.75
2023-07-21T01:28:20.818Z,6.22
2023-07-21T01:30:50.110Z,6.70
2023-07-21T01:33:21.685Z,6.60
2023-07-21T01:35:50.299Z,5.88
2023-07-21T01:38:20.931Z,6.05
2023-07-21T01:40:49.157Z,6.05
2023-07-21T01:43:17.642Z,6.43
2023-07-21T01:45:45.092Z,5.45
2023-07-21T01:48:14.341Z,6.78
2023-07-21T01:50:43.971Z,5.75
2023-07-21T01:53:25.187Z,5.90
2023-07-21T01:56:03.754Z,5.85
2023-07-21T01:58:34.860Z,6.22
2023-07-21T02:01:03.561Z,6.32
2023-07-21T02:03:31.568Z,5.60
2023-07-21T02:05:59.021Z,5.88
2023-07-21T02:08:27.283Z,6.57
2023-07-21T02:10:55.036Z,6.95
2023-07-21T02:13:45.799Z,7.22
2023-07-21T02:16:14.467Z,5.95
2023-07-21T02:18:43.882Z,8.75
2023-07-21T02:21:11.768Z,5.88
2023-07-21T02:23:39.563Z,5.88
2023-07-21T02:26:06.921Z,5.70
2023-07-21T02:28:34.457Z,6.35
2023-07-21T02:31:05.559Z,5.80
2023-07-21T02:33:33.884Z,5.07
2023-07-21T02:36:04.005Z,6.07
2023-07-21T02:38:31.634Z,5.97
2023-07-21T02:41:06.316Z,5.18
2023-07-21T02:43:34.782Z,5.18
2023-07-21T02:46:03.245Z,5.40
2023-07-21T02:48:33.481Z,5.30
2023-07-21T02:51:01.725Z,6.25
2023-07-21T02:53:34.385Z,5.13
2023-07-21T02:56:06.933Z,6.70
2023-07-21T02:58:54.610Z,5.22
2023-07-21T03:01:22.774Z,5.90
2023-07-21T03:03:55.683Z,4.97
2023-07-21T03:06:24.206Z,5.53
2023-07-21T03:08:55.468Z,5.57
2023-07-21T03:11:26.165Z,5.07
2023-07-21T03:14:26.001Z,5.57
2023-07-21T03:16:53.644Z,5.03
2023-07-21T03:19:21.937Z,5.55
2023-07-21T03:21:51.314Z,5.18
2023-07-21T03:24:19.099Z,4.85
2023-07-21T03:26:46.905Z,5.15
2023-07-21T03:29:14.704Z,5.47
2023-07-21T03:31:46.957Z,5.40
2023-07-21T03:34:15.890Z,5.43
2023-07-21T03:36:43.331Z,7.38
2023-07-21T03:39:10.966Z,6.38
2023-07-21T03:41:38.411Z,5.07
2023-07-21T03:44:06.190Z,5.47
2023-07-21T03:46:33.996Z,6.13
2023-07-21T03:49:20.169Z,5.38
2023-07-21T03:51:53.799Z,4.90
2023-07-21T03:54:21.401Z,5.43
2023-07-21T03:56:48.715Z,5.72
2023-07-21T03:59:16.276Z,5.45
2023-07-21T04:01:43.630Z,6.18
2023-07-21T04:04:11.392Z,5.30
2023-07-21T04:06:38.789Z,5.25
2023-07-21T04:09:06.440Z,5.65
2023-07-21T04:11:36.060Z,5.32
2023-07-21T04:14:03.679Z,5.80
2023-07-21T04:16:32.101Z,5.53
2023-07-21T04:19:00.040Z,5.30
2023-07-21T04:21:27.616Z,5.30
2023-07-21T04:23:57.379Z,5.25
2023-07-21T04:26:25.816Z,5.05
2023-07-21T04:28:53.803Z,6.57
2023-07-21T04:31:23.650Z,6.22
2023-07-21T04:34:02.057Z,5.85
2023-07-21T04:36:30.059Z,5.88
2023-07-21T04:39:01.556Z,5.35
2023-07-21T04:41:29.484Z,5.55
2023-07-21T04:43:59.677Z,5.68
2023-07-21T04:46:27.925Z,7.03
2023-07-21T04:48:57.212Z,6.65
2023-07-21T04:51:38.373Z,6.35
2023-07-21T04:54:07.013Z,6.05
2023-07-21T04:56:34.911Z,5.63
2023-07-21T04:59:03.445Z,7.15
2023-07-21T05:01:32.550Z,7.93
2023-07-21T05:04:00.439Z,8.73
2023-07-21T05:06:28.413Z,6.40
2023-07-21T05:08:56.405Z,5.70
2023-07-21T05:11:23.667Z,5.97
2023-07-21T05:13:53.917Z,5.75
2023-07-21T05:16:38.821Z,6.05
2023-07-21T05:19:30.254Z,5.28
2023-07-21T05:22:17.712Z,5.40
2023-07-21T05:25:13.583Z,7.75
2023-07-21T05:27:43.209Z,6.15
2023-07-21T05:30:12.700Z,5.63
2023-07-21T05:32:48.755Z,6.13
2023-07-21T05:35:23.201Z,5.25
2023-07-21T05:37:55.393Z,6.03
2023-07-21T05:40:23.633Z,5.63
2023-07-21T05:42:51.387Z,5.38
2023-07-21T05:45:20.779Z,5.60
2023-07-21T05:47:49.896Z,5.80
2023-07-21T05:50:18.900Z,5.68
2023-07-21T05:52:51.884Z,5.50
2023-07-21T05:55:24.329Z,5.80
2023-07-21T05:57:52.076Z,5.68
2023-07-21T06:00:20.271Z,6.13
2023-07-21T06:02:55.891Z,6.70
2023-07-21T06:05:23.788Z,7.35
2023-07-21T06:08:26.738Z,8.40
2023-07-21T06:11:24.909Z,7.78
2023-07-21T06:14:13.101Z,8.57
2023-07-21T06:17:10.592Z,8.95
2023-07-21T06:19:38.275Z,8.85
2023-07-21T06:22:06.768Z,9.00
2023-07-21T06:24:35.892Z,9.45
2023-07-21T06:27:03.755Z,9.77
2023-07-21T06:29:31.322Z,9.00
2023-07-21T06:31:59.466Z,8.05
2023-07-21T06:34:55.376Z,7.78
2023-07-21T06:37:43.779Z,7.35
2023-07-21T06:40:23.250Z,7.60
2023-07-21T06:43:23.771Z,6.57
2023-07-21T06:46:16.245Z,6.32
2023-07-21T06:48:47.556Z,5.72
2023-07-21T06:51:25.086Z,5.95
2023-07-21T06:53:53.554Z,6.60
2023-07-21T06:56:20.939Z,6.30
2023-07-21T06:58:48.570Z,6.45
2023-07-21T07:01:23.475Z,6.07
2023-07-21T07:03:57.133Z,5.80
2023-07-21T07:06:24.498Z,5.40
2023-07-21T07:08:54.058Z,5.53
2023-07-21T07:11:21.531Z,5.60
2023-07-21T07:13:49.538Z,5.22
2023-07-21T07:16:16.910Z,6.05
2023-07-21T07:18:44.603Z,5.25
2023-07-21T07:21:11.968Z,5.88
2023-07-21T07:23:39.806Z,5.88
2023-07-21T07:26:07.798Z,5.60
2023-07-21T07:28:36.377Z,5.22
2023-07-21T07:31:05.569Z,5.80
2023-07-21T07:33:33.327Z,5.53
2023-07-21T07:36:02.164Z,5.57
2023-07-21T07:38:32.041Z,5.18
2023-07-21T07:41:04.931Z,5.35
2023-07-21T07:43:33.806Z,4.70
2023-07-21T07:46:03.053Z,5.03
2023-07-21T07:48:30.808Z,4.82
2023-07-21T07:50:58.548Z,5.97
2023-07-21T07:53:26.499Z,4.65
2023-07-21T07:55:53.958Z,4.25
2023-07-21T07:58:21.631Z,5.07
2023-07-21T08:00:49.392Z,5.65
2023-07-21T08:03:17.461Z,6.10
2023-07-21T08:05:44.943Z,5.55
2023-07-21T08:08:14.465Z,4.90
2023-07-21T08:10:43.053Z,5.05
2023-07-21T08:13:11.262Z,5.85
2023-07-21T08:15:42.627Z,4.63
2023-07-21T08:18:12.385Z,4.72
2023-07-21T08:20:42.173Z,4.80
2023-07-21T08:23:23.037Z,4.90
2023-07-21T08:25:51.633Z,4.22
2023-07-21T08:28:19.257Z,4.57
2023-07-21T08:30:57.443Z,4.45
2023-07-21T08:33:26.035Z,4.28
2023-07-21T08:35:53.430Z,4.50
2023-07-21T08:38:21.156Z,3.97
2023-07-21T08:40:52.001Z,4.03
2023-07-21T08:43:21.361Z,5.30
2023-07-21T08:45:49.027Z,4.70
2023-07-21T08:48:19.272Z,5.18
2023-07-21T08:50:49.963Z,5.05
2023-07-21T08:53:17.692Z,5.40
2023-07-21T08:55:45.066Z,5.45
2023-07-21T08:58:13.257Z,5.03
2023-07-21T09:00:40.860Z,5.30
2023-07-21T09:03:08.721Z,4.85
2023-07-21T09:05:36.387Z,4.82
2023-07-21T09:08:04.428Z,4.60
2023-07-21T09:10:33.941Z,4.78
2023-07-21T09:13:02.789Z,4.95
2023-07-21T09:15:30.138Z,5.13
2023-07-21T09:18:01.335Z,4.97
2023-07-21T09:20:32.480Z,5.28
2023-07-21T09:23:00.388Z,5.03
2023-07-21T09:25:27.803Z,5.45
2023-07-21T09:27:57.113Z,5.05
2023-07-21T09:30:24.914Z,5.55
2023-07-21T09:32:57.444Z,5.95
2023-07-21T09:35:24.983Z,5.38
2023-07-21T09:37:53.332Z,4.90
2023-07-21T09:40:29.719Z,5.97
2023-07-21T09:42:59.261Z,5.93
2023-07-21T09:45:28.010Z,5.05
2023-07-21T09:47:57.460Z,5.68
2023-07-21T09:50:24.821Z,6.00
2023-07-21T09:52:55.007Z,5.85
2023-07-21T09:55:23.823Z,5.22
2023-07-21T09:57:51.644Z,5.88
2023-07-21T10:00:19.570Z,6.07
2023-07-21T10:02:52.194Z,5.82
2023-07-21T10:05:20.212Z,5.03
2023-07-21T10:07:51.786Z,4.78
2023-07-21T10:10:20.435Z,5.07
2023-07-21T10:12:54.111Z,4.90
2023-07-21T10:15:30.350Z,5.45
2023-07-21T10:18:04.515Z,5.05
2023-07-21T10:20:41.278Z,4.88
2023-07-21T10:23:13.738Z,4.80
2023-07-21T10:26:03.244Z,5.40
2023-07-21T10:28:35.658Z,5.93
2023-07-21T10:31:28.431Z,4.60
2023-07-21T10:34:15.258Z,5.47
2023-07-21T10:36:49.817Z,4.35
2023-07-21T10:39:21.626Z,4.78
2023-07-21T10:41:54.270Z,5.60
2023-07-21T10:44:22.515Z,4.47
2023-07-21T10:46:52.274Z,4.07
2023-07-21T10:49:21.252Z,4.80
2023-07-21T10:51:50.212Z,4.35
2023-07-21T10:54:18.898Z,4.80
2023-07-21T10:56:48.344Z,4.63
2023-07-21T10:59:19.331Z,4.72
2023-07-21T11:01:49.056Z,4.70
2023-07-21T11:04:21.571Z,4.50
2023-07-21T11:06:52.506Z,4.68
2023-07-21T11:09:22.721Z,5.03
2023-07-21T11:11:52.501Z,4.25
2023-07-21T11:14:22.578Z,4.82
2023-07-21T11:16:58.654Z,4.10
2023-07-21T11:19:28.273Z,4.22
2023-07-21T11:21:59.841Z,4.20
2023-07-21T11:24:30.877Z,4.00
2023-07-21T11:27:17.321Z,4.00
2023-07-21T11:29:45.755Z,4.32
2023-07-21T11:32:24.970Z,5.13
2023-07-21T11:35:00.369Z,4.20
2023-07-21T11:37:39.248Z,4.18
2023-07-21T11:40:17.181Z,4.68
2023-07-21T11:42:49.613Z,4.57
2023-07-21T11:45:42.797Z,4.82
2023-07-21T11:48:16.283Z,4.40
2023-07-21T11:50:55.611Z,4.13
2023-07-21T11:53:26.432Z,4.22
2023-07-21T11:55:54.742Z,5.78
2023-07-21T11:58:22.199Z,5.03
2023-07-21T12:00:52.359Z,4.95
2023-07-21T12:03:19.905Z,4.50
2023-07-21T12:05:47.705Z,4.45
2023-07-21T12:08:15.002Z,4.50
2023-07-21T12:10:44.024Z,4.50
2023-07-21T12:13:11.382Z,4.05
2023-07-21T12:15:39.097Z,5.07
2023-07-21T12:18:06.499Z,5.18
2023-07-21T12:20:34.530Z,4.80
2023-07-21T12:23:02.095Z,4.32
2023-07-21T12:25:29.795Z,5.03
2023-07-21T12:27:57.768Z,5.13
2023-07-21T12:30:25.434Z,4.70
2023-07-21T12:32:52.863Z,4.78
2023-07-21T12:35:23.802Z,3.97
2023-07-21T12:37:51.464Z,4.72
2023-07-21T12:40:19.189Z,5.05
2023-07-21T12:42:46.645Z,5.00
2023-07-21T12:45:14.196Z,4.20
2023-07-21T12:47:41.546Z,4.70
2023-07-21T12:50:09.283Z,4.65
2023-07-21T12:52:36.549Z,4.80
2023-07-21T12:55:04.482Z,4.25
2023-07-21T12:57:32.069Z,5.05
2023-07-21T12:59:59.640Z,4.32
2023-07-21T13:02:27.322Z,5.13
2023-07-21T13:04:55.179Z,5.22
2023-07-21T13:07:22.529Z,4.40
2023-07-21T13:09:50.183Z,4.85
2023-07-21T13:12:17.698Z,5.40
2023-07-21T13:14:46.587Z,5.00
2023-07-21T13:17:13.995Z,4.82
2023-07-21T13:19:41.702Z,5.32
2023-07-21T13:22:08.989Z,5.13
2023-07-21T13:24:36.761Z,4.47
2023-07-21T13:27:04.338Z,4.55
2023-07-21T13:29:31.911Z,4.85
2023-07-21T13:31:59.270Z,5.68
2023-07-21T13:34:27.164Z,4.75
2023-07-21T13:36:54.985Z,4.80
2023-07-21T13:39:22.999Z,4.72
2023-07-21T13:41:51.172Z,4.80
2023-07-21T13:44:19.260Z,4.97
2023-07-21T13:46:46.834Z,4.95
2023-07-21T13:49:14.576Z,5.22
2023-07-21T13:51:41.852Z,5.00
2023-07-21T13:54:11.569Z,4.50
2023-07-21T13:56:40.688Z,5.20
2023-07-21T13:59:08.864Z,5.13
2023-07-21T14:01:36.642Z,5.65
2023-07-21T14:04:04.781Z,4.57
2023-07-21T14:06:32.114Z,5.03
2023-07-21T14:08:59.925Z,4.57
2023-07-21T14:11:27.191Z,5.10
2023-07-21T14:13:55.004Z,5.57
2023-07-21T14:16:22.312Z,4.90
2023-07-21T14:18:49.900Z,4.45
2023-07-21T14:21:17.934Z,5.70
2023-07-21T14:23:45.833Z,4.80
2023-07-21T14:26:13.176Z,5.18
2023-07-21T14:28:40.773Z,4.60
2023-07-21T14:31:08.387Z,4.53
2023-07-21T14:33:36.321Z,5.38
2023-07-21T14:36:04.248Z,5.65
2023-07-21T14:38:35.044Z,5.95
2023-07-21T14:41:03.578Z,6.15
2023-07-21T14:43:31.830Z,5.75
2023-07-21T14:46:00.010Z,6.05
2023-07-21T14:48:27.635Z,6.90
2023-07-21T14:50:55.144Z,6.45
2023-07-21T14:53:22.712Z,5.07
2023-07-21T14:55:50.876Z,5.57
2023-07-21T14:58:18.600Z,5.85
2023-07-21T15:00:46.764Z,5.88
2023-07-21T15:03:14.926Z,5.43
2023-07-21T15:05:43.377Z,5.60
2023-07-21T15:08:11.064Z,5.35
2023-07-21T15:10:38.408Z,5.78
2023-07-21T15:13:06.030Z,10.18
2023-07-21T15:15:33.627Z,6.47
2023-07-21T15:18:01.313Z,5.60
2023-07-21T15:20:31.463Z,6.38
2023-07-21T15:22:59.272Z,7.15
2023-07-21T15:25:26.636Z,5.68
2023-07-21T15:27:54.204Z,5.70
2023-07-21T15:30:21.899Z,5.03
2023-07-21T15:32:49.663Z,5.85
2023-07-21T15:35:17.012Z,4.90
2023-07-21T15:37:44.579Z,5.60
2023-07-21T15:40:13.505Z,6.35
2023-07-21T15:42:45.357Z,6.82
2023-07-21T15:45:13.438Z,8.30
2023-07-21T15:47:41.201Z,6.90
2023-07-21T15:50:14.093Z,6.78
2023-07-21T15:52:42.653Z,5.20
2023-07-21T15:55:12.749Z,5.70
2023-07-21T15:57:42.507Z,5.80
2023-07-21T16:00:17.534Z,5.47
2023-07-21T16:02:47.635Z,5.25
2023-07-21T16:05:17.997Z,5.40
2023-07-21T16:07:45.849Z,4.53
2023-07-21T16:10:15.153Z,5.95
2023-07-21T16:12:47.068Z,5.95
2023-07-21T16:15:14.655Z,7.25
2023-07-21T16:17:42.358Z,6.95
2023-07-21T16:20:13.725Z,5.30
2023-07-21T16:22:42.160Z,5.90
2023-07-21T16:25:10.451Z,6.90
2023-07-21T16:27:38.396Z,7.55
2023-07-21T16:30:06.472Z,7.93
2023-07-21T16:32:34.513Z,5.95
2023-07-21T16:35:03.850Z,5.80
2023-07-21T16:37:31.665Z,7.47
2023-07-21T16:40:01.615Z,6.35
2023-07-21T16:42:36.853Z,5.47
2023-07-21T16:45:07.130Z,5.32
2023-07-21T16:47:35.367Z,6.30
2023-07-21T16:50:02.870Z,6.45
2023-07-21T16:52:30.648Z,6.32
2023-07-21T16:54:58.312Z,6.40
2023-07-21T16:57:27.212Z,6.97
2023-07-21T17:00:01.031Z,5.55
2023-07-21T17:02:30.845Z,6.07
2023-07-21T17:04:59.578Z,6.30
2023-07-21T17:07:27.142Z,7.00
2023-07-21T17:09:57.254Z,6.88
2023-07-21T17:12:26.135Z,7.18
2023-07-21T17:14:53.444Z,6.43
2023-07-21T17:17:21.256Z,6.40
2023-07-21T17:19:48.537Z,6.25
2023-07-21T17:22:16.378Z,5.93
2023-07-21T17:24:44.035Z,5.72
2023-07-21T17:27:11.722Z,5.18
2023-07-21T17:29:41.495Z,5.88
2023-07-21T17:32:09.804Z,5.80
2023-07-21T17:34:37.159Z,6.07
2023-07-21T17:37:05.224Z,5.93
2023-07-21T17:39:32.761Z,5.57
2023-07-21T17:42:01.265Z,5.70
2023-07-21T17:44:31.112Z,5.20
2023-07-21T17:46:58.844Z,5.75
2023-07-21T17:49:27.688Z,5.70
2023-07-21T17:51:55.329Z,5.35
2023-07-21T17:54:22.728Z,5.97
2023-07-21T17:56:53.027Z,5.97
2023-07-21T17:59:20.302Z,5.00
2023-07-21T18:01:48.485Z,5.80
2023-07-21T18:04:16.078Z,6.50
2023-07-21T18:06:43.814Z,6.07
2023-07-21T18:09:12.067Z,5.82
2023-07-21T18:11:39.839Z,5.60
2023-07-21T18:14:07.236Z,5.80
2023-07-21T18:16:34.973Z,5.93
2023-07-21T18:19:08.206Z,5.60
2023-07-21T18:21:40.830Z,6.15
2023-07-21T18:24:12.556Z,5.65
2023-07-21T18:26:40.292Z,6.05
2023-07-21T18:29:09.418Z,5.18
2023-07-21T18:31:39.327Z,5.65
2023-07-21T18:34:06.770Z,5.88
2023-07-21T18:36:34.830Z,6.18
2023-07-21T18:39:02.192Z,5.95
2023-07-21T18:41:30.342Z,5.55
2023-07-21T18:43:58.362Z,6.68
2023-07-21T18:47:16.914Z,5.57
2023-07-21T18:53:07.408Z,4.72
2023-07-21T18:55:35.640Z,5.47
2023-07-21T18:58:04.456Z,4.82
2023-07-21T19:00:33.718Z,5.55
2023-07-21T19:03:02.005Z,5.10
2023-07-21T19:05:31.413Z,5.05
2023-07-21T19:08:00.812Z,5.35
2023-07-21T19:10:29.622Z,6.20
2023-07-21T19:12:58.320Z,5.53
2023-07-21T19:15:26.124Z,8.50
2023-07-21T19:17:53.575Z,10.20
2023-07-21T19:20:23.331Z,7.97
2023-07-21T19:22:50.917Z,8.55
2023-07-21T19:25:18.613Z,7.38
2023-07-21T19:27:47.489Z,6.85
2023-07-21T19:30:19.820Z,6.88
2023-07-21T19:32:47.151Z,4.63
2023-07-21T19:35:14.895Z,5.45
2023-07-21T19:37:42.566Z,5.32
2023-07-21T19:40:14.176Z,5.28
2023-07-21T19:42:42.032Z,6.53
2023-07-21T19:45:12.104Z,6.50
2023-07-21T19:47:39.671Z,7.57
2023-07-21T19:50:07.806Z,6.35
2023-07-21T19:52:35.408Z,6.25
2023-07-21T19:55:03.284Z,6.35
2023-07-21T19:57:30.596Z,6.07
2023-07-21T20:00:14.044Z,5.88
2023-07-21T20:02:42.127Z,6.07
2023-07-21T20:05:10.140Z,6.15
2023-07-21T20:07:37.573Z,6.13
2023-07-21T20:10:06.091Z,5.65
2023-07-21T20:12:33.589Z,5.05
2023-07-21T20:15:01.531Z,5.20
2023-07-21T20:17:29.583Z,5.70
2023-07-21T20:19:57.717Z,6.18
2023-07-21T20:22:25.769Z,4.90
2023-07-21T20:25:18.921Z,4.80
2023-07-21T20:27:46.592Z,6.90
2023-07-21T20:30:14.487Z,7.30
2023-07-21T20:32:46.121Z,5.20
2023-07-21T20:35:14.167Z,5.25
2023-07-21T20:37:41.529Z,5.63
2023-07-21T20:40:12.478Z,7.15
2023-07-21T20:42:40.353Z,5.53
2023-07-21T20:45:08.269Z,4.95
2023-07-21T20:47:37.696Z,4.53
2023-07-21T20:50:06.883Z,4.78
2023-07-21T20:52:36.023Z,4.72
2023-07-21T20:55:06.057Z,4.40
2023-07-21T20:57:33.721Z,5.15
2023-07-21T21:00:01.417Z,4.00
2023-07-21T21:02:32.254Z,3.83
2023-07-21T21:05:00.053Z,4.57
2023-07-21T21:07:27.306Z,4.57
2023-07-21T21:09:55.532Z,4.82
2023-07-21T21:12:22.876Z,4.63
2023-07-21T21:14:50.574Z,4.35
2023-07-21T21:17:18.045Z,4.22
2023-07-21T21:19:45.848Z,5.43
2023-07-21T21:22:13.492Z,4.65
2023-07-21T21:24:42.937Z,5.93
2023-07-21T21:27:11.503Z,4.70
2023-07-21T21:29:39.575Z,4.40
2023-07-21T21:32:07.663Z,5.15
2023-07-21T21:34:36.517Z,4.57
2023-07-21T21:37:04.046Z,4.28
2023-07-21T21:39:31.983Z,5.28
2023-07-21T21:41:59.633Z,4.32
2023-07-21T21:44:27.601Z,4.63
2023-07-21T21:46:55.117Z,4.65
2023-07-21T21:49:22.964Z,5.00
2023-07-21T21:51:51.754Z,4.50
2023-07-21T21:54:19.485Z,4.45
2023-07-21T21:56:47.255Z,3.85
2023-07-21T21:59:15.056Z,4.45
2023-07-21T22:01:43.866Z,4.25
2023-07-21T22:04:11.772Z,4.50
2023-07-21T22:06:39.175Z,4.35
2023-07-21T22:09:06.882Z,3.80
2023-07-21T22:11:34.198Z,3.85
2023-07-21T22:14:02.207Z,3.42
2023-07-21T22:16:29.745Z,4.32
2023-07-21T22:18:57.909Z,3.67
2023-07-21T22:21:25.495Z,3.45
2023-07-21T22:23:53.385Z,3.05
2023-07-21T22:26:20.844Z,2.67
2023-07-21T22:28:48.588Z,3.20
2023-07-21T22:31:17.612Z,2.92
2023-07-21T22:33:45.790Z,2.75
2023-07-21T22:36:13.354Z,2.60
2023-07-21T22:38:41.126Z,3.78
2023-07-21T22:41:13.269Z,3.15
2023-07-21T22:43:41.239Z,2.92
2023-07-21T22:46:08.755Z,3.10
2023-07-21T22:48:36.520Z,3.15
2023-07-21T22:51:07.782Z,3.00
2023-07-21T22:53:40.815Z,2.85
2023-07-21T22:56:09.262Z,3.42
2023-07-21T22:58:37.478Z,3.10
2023-07-21T23:01:09.817Z,3.15
2023-07-21T23:03:38.283Z,3.00
2023-07-21T23:06:06.080Z,3.25
2023-07-21T23:08:34.659Z,2.58
2023-07-21T23:11:02.169Z,3.38
2023-07-21T23:13:29.895Z,2.83
2023-07-21T23:15:57.291Z,2.97
2023-07-21T23:18:25.070Z,2.40
2023-07-21T23:20:52.624Z,2.95
2023-07-21T23:23:20.502Z,3.15
2023-07-21T23:25:48.756Z,3.20
2023-07-21T23:28:16.576Z,3.65
2023-07-21T23:30:44.741Z,2.72
2023-07-21T23:33:12.553Z,3.10
2023-07-21T23:35:42.534Z,2.95
2023-07-21T23:38:11.252Z,3.08
2023-07-21T23:40:38.783Z,3.10
2023-07-21T23:43:07.824Z,3.33
2023-07-21T23:45:35.158Z,2.90
2023-07-21T23:48:02.793Z,2.47
2023-07-21T23:50:30.569Z,3.30
2023-07-21T23:52:59.284Z,2.35
2023-07-21T23:55:26.577Z,2.83
2023-07-21T23:57:54.350Z,2.70
